createdAt,value
2022-09-28T00:02:11.670Z,15.32
2022-09-28T00:04:39.474Z,16.72
2022-09-28T00:07:07.198Z,15.12
2022-09-28T00:09:34.925Z,15.02
2022-09-28T00:12:03.254Z,14.87
2022-09-28T00:14:32.845Z,14.54
2022-09-28T00:17:00.551Z,15.38
2022-09-28T00:19:28.370Z,16.12
2022-09-28T00:21:56.055Z,15.71
2022-09-28T00:24:27.582Z,14.90
2022-09-28T00:26:56.872Z,16.25
2022-09-28T00:29:26.558Z,17.81
2022-09-28T00:32:00.003Z,15.90
2022-09-28T00:34:31.854Z,17.10
2022-09-28T00:37:00.318Z,15.89
2022-09-28T00:39:28.510Z,17.61
2022-09-28T00:41:56.776Z,16.65
2022-09-28T00:44:40.201Z,16.76
2022-09-28T00:47:28.792Z,16.44
2022-09-28T00:49:58.887Z,16.40
2022-09-28T00:52:29.203Z,18.19
2022-09-28T00:54:58.246Z,16.26
2022-09-28T00:57:26.849Z,16.41
2022-09-28T00:59:54.597Z,16.86
2022-09-28T01:02:23.797Z,17.49
2022-09-28T01:04:52.260Z,16.74
2022-09-28T01:07:20.523Z,16.20
2022-09-28T01:09:48.535Z,17.64
2022-09-28T01:12:16.269Z,16.55
2022-09-28T01:14:44.592Z,17.74
2022-09-28T01:17:16.162Z,17.41
2022-09-28T01:20:54.327Z,17.56
2022-09-28T01:23:41.705Z,15.66
2022-09-28T01:26:38.487Z,18.59
2022-09-28T01:29:14.859Z,17.65
2022-09-28T01:31:46.631Z,18.29
2022-09-28T01:34:19.010Z,17.51
2022-09-28T01:36:49.918Z,16.53
2022-09-28T01:39:20.599Z,19.06
2022-09-28T01:41:52.353Z,19.44
2022-09-28T01:44:22.248Z,19.09
2022-09-28T01:46:51.300Z,19.52
2022-09-28T01:49:22.113Z,18.93
2022-09-28T01:51:55.799Z,17.11
2022-09-28T01:54:35.514Z,17.71
2022-09-28T01:57:10.238Z,17.22
2022-09-28T01:59:39.761Z,18.44
2022-09-28T02:02:12.550Z,16.20
2022-09-28T02:04:44.180Z,16.02
2022-09-28T02:07:14.927Z,15.04
2022-09-28T02:09:45.656Z,15.82
2022-09-28T02:12:17.308Z,13.95
2022-09-28T02:14:46.605Z,14.70
2022-09-28T02:17:16.093Z,14.37
2022-09-28T02:19:48.159Z,13.77
2022-09-28T02:22:25.470Z,14.58
2022-09-28T02:24:56.610Z,15.82
2022-09-28T02:27:33.956Z,17.84
2022-09-28T02:30:01.914Z,16.09
2022-09-28T02:32:33.019Z,16.97
2022-09-28T02:35:01.242Z,17.60
2022-09-28T02:37:29.445Z,18.14
2022-09-28T02:39:57.190Z,18.03
2022-09-28T02:42:28.014Z,17.64
2022-09-28T02:45:09.140Z,17.90
2022-09-28T02:47:47.736Z,17.84
2022-09-28T02:50:24.143Z,17.36
2022-09-28T02:53:10.037Z,18.88
2022-09-28T02:55:47.873Z,18.47
2022-09-28T02:58:22.664Z,17.82
2022-09-28T03:00:58.573Z,17.68
2022-09-28T03:03:32.263Z,16.43
2022-09-28T03:06:03.841Z,17.00
2022-09-28T03:08:40.606Z,18.56
2022-09-28T03:11:15.003Z,17.64
2022-09-28T03:13:43.718Z,16.51
2022-09-28T03:16:15.156Z,18.21
2022-09-28T03:18:45.287Z,18.10
2022-09-28T03:21:13.774Z,17.71
2022-09-28T03:23:41.987Z,17.22
2022-09-28T03:26:09.935Z,17.81
2022-09-28T03:28:37.849Z,17.59
2022-09-28T03:31:07.183Z,18.88
2022-09-28T03:33:36.345Z,19.75
2022-09-28T03:36:04.110Z,19.55
2022-09-28T03:38:34.687Z,19.72
2022-09-28T03:41:02.957Z,17.27
2022-09-28T03:43:35.707Z,19.43
2022-09-28T03:46:04.707Z,19.81
2022-09-28T03:48:39.167Z,19.50
2022-09-28T03:51:09.182Z,17.80
2022-09-28T03:53:37.713Z,18.99
2022-09-28T03:56:07.811Z,17.72
2022-09-28T03:58:36.259Z,17.96
2022-09-28T04:01:05.441Z,17.67
2022-09-28T04:03:33.508Z,17.31
2022-09-28T04:06:02.648Z,17.74
2022-09-28T04:08:30.467Z,18.25
2022-09-28T04:11:00.308Z,18.05
2022-09-28T04:13:29.915Z,17.10
2022-09-28T04:16:00.984Z,18.39
2022-09-28T04:18:31.476Z,18.80
2022-09-28T04:21:08.120Z,18.26
2022-09-28T04:23:41.521Z,17.92
2022-09-28T04:26:13.204Z,18.26
2022-09-28T04:29:01.595Z,18.60
2022-09-28T04:31:32.292Z,19.43
2022-09-28T04:34:00.473Z,18.48
2022-09-28T04:36:30.344Z,18.41
2022-09-28T04:38:58.187Z,17.50
2022-09-28T04:41:28.012Z,17.30
2022-09-28T04:43:56.789Z,18.07
2022-09-28T04:46:26.379Z,16.68
2022-09-28T04:49:17.314Z,18.02
2022-09-28T04:51:51.245Z,17.64
2022-09-28T04:54:19.882Z,17.61
2022-09-28T04:56:47.726Z,18.45
2022-09-28T04:59:15.562Z,16.83
2022-09-28T05:01:45.244Z,18.05
2022-09-28T05:04:22.389Z,18.90
2022-09-28T05:07:06.407Z,18.09
2022-09-28T05:09:38.305Z,17.37
2022-09-28T05:12:06.593Z,18.29
2022-09-28T05:14:34.458Z,17.19
2022-09-28T05:17:02.574Z,16.52
2022-09-28T05:19:38.968Z,18.09
2022-09-28T05:22:11.448Z,17.80
2022-09-28T05:24:42.754Z,18.33
2022-09-28T05:27:10.759Z,18.10
2022-09-28T05:29:38.627Z,18.13
2022-09-28T05:32:31.967Z,18.29
2022-09-28T05:35:18.994Z,15.77
2022-09-28T05:37:49.477Z,17.41
2022-09-28T05:40:17.423Z,16.39
2022-09-28T05:42:45.550Z,17.26
2022-09-28T05:45:14.149Z,18.99
2022-09-28T05:47:46.165Z,19.10
2022-09-28T05:50:17.043Z,18.24
2022-09-28T05:52:45.052Z,18.94
2022-09-28T05:55:15.441Z,17.14
2022-09-28T05:57:43.133Z,16.70
2022-09-28T06:00:12.695Z,18.77
2022-09-28T06:02:40.375Z,18.87
2022-09-28T06:05:11.404Z,17.87
2022-09-28T06:07:39.344Z,16.75
2022-09-28T06:10:08.078Z,18.41
2022-09-28T06:12:43.543Z,16.97
2022-09-28T06:15:17.419Z,18.02
2022-09-28T06:17:47.227Z,15.69
2022-09-28T06:20:38.531Z,16.48
2022-09-28T06:23:14.400Z,16.33
2022-09-28T06:25:42.568Z,16.16
2022-09-28T06:28:13.359Z,17.04
2022-09-28T06:30:41.979Z,17.72
2022-09-28T06:33:14.322Z,15.22
2022-09-28T06:35:42.400Z,15.86
2022-09-28T06:38:10.744Z,16.67
2022-09-28T06:40:39.397Z,15.01
2022-09-28T06:43:10.385Z,16.80
2022-09-28T06:45:58.210Z,16.28
2022-09-28T06:48:46.533Z,18.64
2022-09-28T06:51:18.884Z,16.96
2022-09-28T06:53:58.359Z,19.21
2022-09-28T06:56:39.726Z,19.83
2022-09-28T06:59:07.654Z,16.92
2022-09-28T07:01:38.529Z,17.82
2022-09-28T07:04:19.301Z,16.53
2022-09-28T07:07:16.149Z,16.71
2022-09-28T07:10:07.007Z,15.04
2022-09-28T07:12:43.636Z,16.76
2022-09-28T07:15:27.476Z,17.95
2022-09-28T07:18:02.683Z,17.09
2022-09-28T07:20:34.639Z,16.41
2022-09-28T07:23:16.681Z,16.12
2022-09-28T07:26:08.589Z,18.03
2022-09-28T07:28:49.239Z,18.62
2022-09-28T07:35:55.366Z,18.42
2022-09-28T07:38:27.884Z,18.87
2022-09-28T07:41:13.893Z,17.79
2022-09-28T07:43:49.701Z,18.28
2022-09-28T07:46:17.713Z,20.07
2022-09-28T07:48:55.872Z,20.26
2022-09-28T07:51:57.182Z,20.36
2022-09-28T07:54:39.707Z,19.67
2022-09-28T07:57:25.759Z,20.05
2022-09-28T08:00:08.900Z,19.37
2022-09-28T08:02:44.267Z,18.69
2022-09-28T08:05:17.048Z,17.31
2022-09-28T08:07:46.138Z,18.51
2022-09-28T08:10:14.389Z,20.89
2022-09-28T08:13:06.386Z,22.61
2022-09-28T08:15:37.127Z,23.93
2022-09-28T08:18:12.574Z,23.20
2022-09-28T08:20:57.919Z,19.90
2022-09-28T08:23:29.200Z,22.10
2022-09-28T08:25:57.087Z,23.58
2022-09-28T08:28:25.727Z,21.71
2022-09-28T08:31:03.491Z,20.76
2022-09-28T08:34:00.684Z,23.13
2022-09-28T08:36:47.142Z,19.59
2022-09-28T08:39:36.366Z,20.68
2022-09-28T08:42:36.020Z,20.10
2022-09-28T08:45:27.789Z,18.71
2022-09-28T08:48:29.583Z,19.99
2022-09-28T08:51:25.288Z,19.66
2022-09-28T08:54:38.987Z,17.55
2022-09-28T08:57:13.718Z,20.19
2022-09-28T08:59:47.830Z,21.43
2022-09-28T09:02:24.000Z,19.88
2022-09-28T09:04:53.794Z,21.81
2022-09-28T09:07:48.569Z,19.78
2022-09-28T09:10:33.857Z,22.19
2022-09-28T09:13:12.400Z,25.48
2022-09-28T09:15:51.748Z,25.12
2022-09-28T09:18:37.406Z,21.65
2022-09-28T09:21:41.378Z,24.70
2022-09-28T09:24:21.432Z,21.54
2022-09-28T09:26:54.136Z,20.67
2022-09-28T09:29:36.589Z,20.51
2022-09-28T09:32:13.987Z,21.62
2022-09-28T09:35:08.772Z,19.81
2022-09-28T09:38:11.152Z,22.93
2022-09-28T09:41:03.649Z,20.31
2022-09-28T09:44:16.092Z,22.06
2022-09-28T09:46:53.589Z,19.37
2022-09-28T09:49:29.789Z,18.02
2022-09-28T09:52:02.361Z,19.37
2022-09-28T09:54:35.117Z,19.64
2022-09-28T09:57:05.664Z,20.86
2022-09-28T09:59:53.496Z,20.88
2022-09-28T10:02:28.459Z,20.24
2022-09-28T10:05:08.828Z,21.57
2022-09-28T10:07:43.577Z,20.81
2022-09-28T10:10:14.038Z,20.93
2022-09-28T10:12:49.959Z,19.40
2022-09-28T10:15:24.313Z,19.67
2022-09-28T10:18:12.710Z,19.67
2022-09-28T10:20:59.164Z,20.13
2022-09-28T10:23:58.873Z,20.01
2022-09-28T10:26:32.146Z,20.91
2022-09-28T10:29:03.318Z,19.17
2022-09-28T10:31:37.672Z,20.12
2022-09-28T10:34:10.123Z,19.46
2022-09-28T10:36:50.097Z,19.58
2022-09-28T10:39:33.920Z,20.36
2022-09-28T10:42:04.686Z,20.21
2022-09-28T10:44:34.355Z,18.50
2022-09-28T10:47:17.697Z,16.87
2022-09-28T10:49:48.489Z,19.00
2022-09-28T10:52:34.636Z,17.22
2022-09-28T10:55:02.993Z,16.99
2022-09-28T10:57:34.563Z,18.32
2022-09-28T11:00:31.225Z,19.27
2022-09-28T11:03:23.626Z,19.33
2022-09-28T11:05:56.088Z,17.54
2022-09-28T11:08:28.633Z,17.58
2022-09-28T11:11:04.805Z,20.42
2022-09-28T11:13:33.628Z,20.27
2022-09-28T11:16:07.242Z,17.30
2022-09-28T11:18:39.352Z,18.01
2022-09-28T11:21:13.258Z,18.29
2022-09-28T11:23:57.423Z,16.47
2022-09-28T11:26:26.006Z,18.55
2022-09-28T11:28:54.195Z,17.42
2022-09-28T11:31:34.411Z,16.77
2022-09-28T11:34:08.393Z,16.44
2022-09-28T11:36:59.642Z,17.99
2022-09-28T11:39:35.092Z,17.36
2022-09-28T11:42:16.333Z,19.61
2022-09-28T11:44:47.530Z,19.27
2022-09-28T11:47:41.418Z,19.51
2022-09-28T11:50:23.787Z,17.83
2022-09-28T11:52:58.884Z,16.84
2022-09-28T11:55:32.112Z,19.73
2022-09-28T11:58:04.774Z,17.57
2022-09-28T12:00:36.440Z,18.75
2022-09-28T12:03:10.198Z,17.13
2022-09-28T12:05:42.408Z,17.86
2022-09-28T12:08:15.617Z,18.00
2022-09-28T12:11:06.239Z,19.81
2022-09-28T12:13:54.391Z,19.01
2022-09-28T12:17:00.831Z,22.03
2022-09-28T12:19:17.976Z,18.74
2022-09-28T12:21:51.217Z,18.69
2022-09-28T12:24:21.472Z,18.37
2022-09-28T12:26:53.313Z,18.28
2022-09-28T12:29:24.821Z,18.93
2022-09-28T12:31:58.342Z,18.29
2022-09-28T12:34:26.270Z,17.42
2022-09-28T12:37:07.142Z,15.86
2022-09-28T12:39:57.665Z,18.32
2022-09-28T12:42:52.898Z,15.53
2022-09-28T12:46:06.709Z,17.86
2022-09-28T12:48:41.051Z,15.37
2022-09-28T12:51:16.658Z,15.94
2022-09-28T12:53:56.748Z,17.80
2022-09-28T12:56:30.508Z,16.41
2022-09-28T12:59:08.061Z,16.41
2022-09-28T13:01:49.726Z,17.72
2022-09-28T13:04:29.474Z,17.32
2022-09-28T13:07:03.393Z,16.70
2022-09-28T13:09:41.704Z,15.50
2022-09-28T13:12:27.211Z,17.19
2022-09-28T13:15:23.498Z,16.03
2022-09-28T13:17:57.092Z,16.70
2022-09-28T13:20:32.219Z,19.80
2022-09-28T13:23:10.433Z,20.36
2022-09-28T13:25:42.367Z,19.45
2022-09-28T13:28:14.444Z,19.25
2022-09-28T13:30:43.887Z,21.34
2022-09-28T13:33:19.235Z,20.92
2022-09-28T13:35:47.082Z,20.19
2022-09-28T13:38:45.455Z,21.58
2022-09-28T13:41:17.372Z,18.97
2022-09-28T13:44:03.410Z,24.30
2022-09-28T13:46:39.085Z,25.21
2022-09-28T13:49:12.908Z,25.01
2022-09-28T13:51:47.495Z,25.99
2022-09-28T13:54:31.461Z,27.28
2022-09-28T13:57:04.200Z,28.38
2022-09-28T13:59:32.866Z,29.59
2022-09-28T14:02:07.178Z,26.46
2022-09-28T14:04:55.163Z,23.96
2022-09-28T14:07:26.031Z,24.15
2022-09-28T14:10:19.917Z,26.94
2022-09-28T14:12:50.265Z,22.07
2022-09-28T14:15:41.513Z,21.49
2022-09-28T14:18:20.834Z,25.46
2022-09-28T14:20:55.839Z,24.60
2022-09-28T14:23:58.958Z,28.25
2022-09-28T14:26:57.911Z,29.22
2022-09-28T14:29:29.404Z,24.81
2022-09-28T14:31:58.739Z,27.31
2022-09-28T14:34:33.116Z,24.09
2022-09-28T14:37:19.511Z,22.31
2022-09-28T14:40:05.454Z,24.62
2022-09-28T14:42:33.590Z,24.38
2022-09-28T14:45:35.786Z,23.64
2022-09-28T14:48:15.721Z,23.95
2022-09-28T14:50:43.639Z,22.53
2022-09-28T14:53:13.482Z,24.30
2022-09-28T14:55:50.075Z,23.15
2022-09-28T14:58:23.360Z,24.06
2022-09-28T15:00:59.006Z,22.11
2022-09-28T15:03:28.479Z,22.27
2022-09-28T15:05:56.443Z,21.81
2022-09-28T15:08:24.175Z,22.48
2022-09-28T15:10:52.869Z,21.04
2022-09-28T15:13:23.498Z,21.96
2022-09-28T15:15:54.728Z,21.71
2022-09-28T15:18:42.510Z,20.99
2022-09-28T15:21:10.794Z,21.93
2022-09-28T15:23:40.805Z,19.96
2022-09-28T15:26:20.988Z,20.84
2022-09-28T15:28:48.820Z,21.44
2022-09-28T15:31:21.517Z,21.45
2022-09-28T15:34:07.256Z,20.99
2022-09-28T15:36:37.524Z,21.24
2022-09-28T15:39:06.678Z,20.33
2022-09-28T15:41:34.849Z,21.52
2022-09-28T15:44:23.483Z,20.75
2022-09-28T15:47:05.633Z,22.19
2022-09-28T15:49:39.125Z,22.24
2022-09-28T15:52:07.798Z,23.46
2022-09-28T15:54:39.525Z,24.29
2022-09-28T15:57:07.319Z,24.69
2022-09-28T15:59:38.093Z,23.90
2022-09-28T16:02:18.653Z,22.83
2022-09-28T16:04:50.427Z,21.10
2022-09-28T16:07:20.317Z,21.71
2022-09-28T16:09:55.941Z,21.44
2022-09-28T16:12:24.422Z,21.10
2022-09-28T16:14:53.423Z,20.30
2022-09-28T16:17:33.674Z,21.23
2022-09-28T16:20:03.182Z,19.51
2022-09-28T16:22:32.776Z,19.99
2022-09-28T16:25:02.040Z,19.25
2022-09-28T16:27:32.012Z,19.23
2022-09-28T16:30:14.481Z,17.69
2022-09-28T16:32:50.721Z,16.42
2022-09-28T16:35:29.876Z,17.08
2022-09-28T16:38:10.525Z,18.96
2022-09-28T16:40:41.810Z,16.44
2022-09-28T16:43:13.121Z,16.44
2022-09-28T16:45:40.953Z,15.11
2022-09-28T16:48:15.697Z,15.88
2022-09-28T16:50:44.455Z,17.29
2022-09-28T16:53:32.244Z,15.59
2022-09-28T16:56:00.596Z,16.08
2022-09-28T16:58:28.880Z,14.47
2022-09-28T17:00:56.699Z,15.57
2022-09-28T17:03:26.386Z,17.18
2022-09-28T17:05:55.120Z,15.94
2022-09-28T17:08:25.547Z,16.08
2022-09-28T17:11:15.877Z,17.20
2022-09-28T17:13:42.552Z,15.95
2022-09-28T17:16:13.576Z,15.60
2022-09-28T17:18:42.701Z,16.23
2022-09-28T17:21:13.395Z,15.24
2022-09-28T17:23:41.072Z,16.24
2022-09-28T17:26:09.898Z,15.61
2022-09-28T17:28:37.830Z,14.20
2022-09-28T17:31:07.962Z,16.07
2022-09-28T17:33:35.701Z,14.95
2022-09-28T17:36:05.758Z,15.39
2022-09-28T17:38:34.590Z,15.84
2022-09-28T17:41:02.656Z,15.04
2022-09-28T17:43:30.446Z,15.21
2022-09-28T17:45:58.263Z,17.28
2022-09-28T17:48:27.077Z,16.23
2022-09-28T17:50:54.869Z,15.39
2022-09-28T17:53:23.928Z,16.04
2022-09-28T17:55:51.700Z,16.10
2022-09-28T17:58:20.509Z,18.36
2022-09-28T18:00:49.536Z,17.45
2022-09-28T18:03:19.160Z,17.90
2022-09-28T18:05:48.225Z,17.31
2022-09-28T18:08:18.700Z,16.79
2022-09-28T18:10:47.827Z,16.69
2022-09-28T18:13:15.944Z,16.90
2022-09-28T18:15:44.104Z,18.15
2022-09-28T18:18:12.910Z,18.80
2022-09-28T18:20:41.950Z,17.64
2022-09-28T18:23:09.772Z,18.65
2022-09-28T18:25:40.563Z,18.84
2022-09-28T18:28:09.912Z,19.43
2022-09-28T18:30:40.306Z,19.59
2022-09-28T18:33:08.448Z,16.95
2022-09-28T18:35:36.238Z,16.23
2022-09-28T18:38:05.151Z,16.57
2022-09-28T18:40:33.612Z,17.43
2022-09-28T18:43:01.851Z,19.70
2022-09-28T18:45:31.209Z,18.92
2022-09-28T18:47:59.602Z,16.84
2022-09-28T18:50:27.322Z,16.08
2022-09-28T18:52:55.085Z,17.20
2022-09-28T18:55:22.854Z,17.48
2022-09-28T18:57:51.408Z,18.57
2022-09-28T19:00:19.267Z,19.41
2022-09-28T19:02:48.493Z,20.63
2022-09-28T19:05:16.404Z,18.22
2022-09-28T19:07:44.207Z,19.14
2022-09-28T19:10:12.045Z,16.53
2022-09-28T19:12:39.780Z,15.73
2022-09-28T19:15:10.477Z,15.55
2022-09-28T19:17:39.536Z,15.38
2022-09-28T19:20:09.431Z,15.07
2022-09-28T19:22:37.250Z,16.94
2022-09-28T19:25:05.408Z,15.72
2022-09-28T19:27:33.181Z,17.55
2022-09-28T19:30:00.972Z,16.19
2022-09-28T19:32:29.916Z,17.31
2022-09-28T19:34:57.974Z,17.08
2022-09-28T19:37:27.079Z,18.83
2022-09-28T19:39:54.840Z,16.46
2022-09-28T19:42:22.581Z,17.31
2022-09-28T19:44:51.047Z,18.11
2022-09-28T19:47:21.612Z,19.22
2022-09-28T19:49:49.652Z,17.69
2022-09-28T19:52:17.573Z,17.66
2022-09-28T19:54:52.039Z,18.57
2022-09-28T19:57:19.774Z,19.35
2022-09-28T19:59:51.995Z,19.71
2022-09-28T20:02:20.482Z,19.22
2022-09-28T20:04:48.335Z,19.57
2022-09-28T20:07:16.229Z,19.20
2022-09-28T20:09:43.973Z,18.66
2022-09-28T20:12:13.032Z,19.06
2022-09-28T20:14:40.764Z,18.27
2022-09-28T20:17:08.859Z,18.06
2022-09-28T20:19:36.611Z,17.96
2022-09-28T20:22:04.705Z,16.93
2022-09-28T20:24:32.967Z,18.36
2022-09-28T20:27:01.176Z,18.22
2022-09-28T20:29:32.531Z,19.05
2022-09-28T20:32:00.385Z,19.35
2022-09-28T20:34:28.571Z,17.15
2022-09-28T20:36:56.862Z,17.24
2022-09-28T20:39:24.622Z,16.92
2022-09-28T20:41:52.482Z,17.58
2022-09-28T20:44:20.460Z,18.98
2022-09-28T20:46:52.154Z,16.14
2022-09-28T20:49:19.902Z,15.17
2022-09-28T20:51:47.659Z,15.58
2022-09-28T20:54:15.409Z,15.79
2022-09-28T20:56:43.176Z,15.44
2022-09-28T20:59:12.501Z,16.27
2022-09-28T21:01:40.768Z,14.74
2022-09-28T21:04:10.713Z,15.38
2022-09-28T21:06:39.864Z,15.12
2022-09-28T21:09:08.970Z,15.89
2022-09-28T21:11:37.008Z,14.59
2022-09-28T21:14:06.563Z,15.69
2022-09-28T21:16:36.287Z,15.84
2022-09-28T21:19:04.417Z,14.52
2022-09-28T21:21:33.725Z,13.31
2022-09-28T21:24:02.023Z,17.23
2022-09-28T21:26:31.179Z,15.18
2022-09-28T21:29:02.021Z,15.90
2022-09-28T21:31:32.564Z,17.00
2022-09-28T21:34:00.740Z,14.86
2022-09-28T21:36:31.915Z,13.81
2022-09-28T21:39:01.209Z,16.46
2022-09-28T21:41:29.455Z,14.19
2022-09-28T21:43:57.266Z,14.95
2022-09-28T21:46:25.189Z,13.76
2022-09-28T21:48:53.832Z,14.16
2022-09-28T21:51:21.876Z,14.95
2022-09-28T21:53:50.198Z,15.10
2022-09-28T21:56:19.367Z,15.06
2022-09-28T21:58:47.841Z,14.80
2022-09-28T22:01:19.521Z,18.14
2022-09-28T22:03:48.846Z,15.99
2022-09-28T22:06:18.360Z,15.46
2022-09-28T22:08:46.897Z,16.05
2022-09-28T22:11:16.432Z,17.25
2022-09-28T22:13:46.837Z,17.13
2022-09-28T22:16:16.918Z,16.87
2022-09-28T22:18:45.444Z,17.73
2022-09-28T22:21:15.242Z,18.78
2022-09-28T22:23:43.382Z,17.49
2022-09-28T22:26:13.859Z,17.24
2022-09-28T22:28:47.964Z,14.48
2022-09-28T22:31:16.134Z,16.95
2022-09-28T22:33:44.221Z,14.69
2022-09-28T22:36:12.323Z,16.18
2022-09-28T22:38:40.121Z,15.21
2022-09-28T22:41:08.138Z,15.06
2022-09-28T22:43:35.856Z,16.06
2022-09-28T22:46:07.360Z,15.35
2022-09-28T22:48:35.748Z,14.54
2022-09-28T22:51:05.234Z,14.49
2022-09-28T22:53:33.484Z,15.42
2022-09-28T22:56:05.568Z,18.08
2022-09-28T22:58:33.816Z,17.87
2022-09-28T23:01:08.661Z,16.56
2022-09-28T23:03:36.980Z,14.29
2022-09-28T23:06:04.924Z,15.19
2022-09-28T23:08:32.976Z,17.77
2022-09-28T23:11:01.114Z,15.77
2022-09-28T23:13:31.029Z,15.44
2022-09-28T23:16:00.433Z,15.40
2022-09-28T23:18:31.701Z,13.25
2022-09-28T23:21:00.904Z,14.90
2022-09-28T23:23:28.885Z,15.09
2022-09-28T23:25:57.073Z,14.40
2022-09-28T23:28:26.006Z,14.56
2022-09-28T23:30:54.694Z,16.70
2022-09-28T23:33:22.756Z,15.80
2022-09-28T23:35:51.832Z,16.71
2022-09-28T23:38:19.694Z,16.27
2022-09-28T23:40:47.703Z,16.06
2022-09-28T23:43:15.571Z,14.75
2022-09-28T23:45:43.705Z,14.49
2022-09-28T23:48:11.724Z,15.40
2022-09-28T23:50:39.503Z,13.43
2022-09-28T23:53:08.639Z,15.60
2022-09-28T23:55:36.429Z,16.63
2022-09-28T23:58:04.179Z,15.79
